Time;durP1;ratioP1;P1;durP2;ratioP2;P2;SDS_P1;SDS_P2;PMS_P1;PMS_P2;Temp;Humidity;BMP_temperature;BMP_pressure;BME280_temperature;BME280_humidity;BME280_pressure;Samples;Min_cycle;Max_cycle;Signal;HPM_P1;HPM_P2
2021/10/20 00:02:18;;;;;;;;;7.33;6.67;;;;;18.20;59.50;101103.06;5011845;28;45515;-73
2021/10/20 00:04:43;;;;;;;;;9.33;8.00;;;;;18.24;59.18;101107.06;5010062;28;45220;-73
2021/10/20 00:07:09;;;;;;;;;7.33;7.33;;;;;18.23;59.00;101106.25;5012090;28;45564;-72
2021/10/20 00:09:35;;;;;;;;;12.67;9.33;;;;;18.19;58.92;101106.72;5002264;28;46384;-73
2021/10/20 00:12:00;;;;;;;;;9.67;8.33;;;;;18.12;59.07;101111.81;4999563;28;45440;-73
2021/10/20 00:14:25;;;;;;;;;10.00;9.00;;;;;18.08;59.15;101115.78;5011828;28;45731;-74
2021/10/20 00:16:52;;;;;;;;;8.67;7.33;;;;;18.05;59.59;101105.47;5008857;28;45550;-73
2021/10/20 00:19:17;;;;;;;;;10.33;5.00;;;;;18.00;59.52;101097.13;5018674;28;46713;-72
2021/10/20 00:21:43;;;;;;;;;10.67;7.00;;;;;18.03;59.39;101112.75;4998561;28;45514;-72
2021/10/20 00:24:08;;;;;;;;;8.00;7.33;;;;;17.97;59.57;101104.41;5000040;28;45365;-73
2021/10/20 00:26:33;;;;;;;;;7.33;6.67;;;;;17.95;59.60;101097.56;5012520;28;45300;-73
2021/10/20 00:28:59;;;;;;;;;7.67;7.00;;;;;17.93;59.85;101100.38;5006706;28;45957;-75
2021/10/20 00:31:24;;;;;;;;;7.33;7.33;;;;;17.95;60.28;101101.03;5005533;28;45443;-72
2021/10/20 00:33:49;;;;;;;;;12.00;9.00;;;;;17.92;59.61;101085.38;5002901;28;45480;-72
2021/10/20 00:36:16;;;;;;;;;8.00;7.00;;;;;17.86;59.86;101083.31;5015995;28;45274;-73
2021/10/20 00:38:41;;;;;;;;;7.00;7.00;;;;;17.83;60.23;101075.69;5000196;28;46473;-73
2021/10/20 00:41:07;;;;;;;;;9.00;7.33;;;;;17.80;59.94;101081.31;5003033;28;45564;-73
2021/10/20 00:43:32;;;;;;;;;7.67;6.67;;;;;17.76;60.38;101074.59;5003929;28;45495;-72
2021/10/20 00:45:58;;;;;;;;;8.00;8.00;;;;;17.74;60.30;101072.09;5001996;28;45317;-72
2021/10/20 00:48:23;;;;;;;;;11.67;9.00;;;;;17.70;60.37;101076.06;5000537;28;45621;-73
2021/10/20 00:50:48;;;;;;;;;6.00;6.00;;;;;17.68;60.36;101071.88;4998768;28;45410;-72
2021/10/20 00:53:14;;;;;;;;;7.67;7.33;;;;;17.65;60.48;101062.41;5010816;28;45494;-73
2021/10/20 00:55:40;;;;;;;;;7.33;7.33;;;;;17.59;60.44;101053.22;5007717;28;45464;-73
2021/10/20 00:58:05;;;;;;;;;7.33;7.33;;;;;17.59;60.78;101057.69;5001843;28;46343;-74
2021/10/20 01:00:31;;;;;;;;;10.67;9.67;;;;;17.53;60.81;101056.47;5001387;28;45308;-73
2021/10/20 01:02:56;;;;;;;;;7.00;6.00;;;;;17.52;61.05;101056.63;4998629;28;45362;-72
2021/10/20 01:05:23;;;;;;;;;8.00;8.00;;;;;17.49;60.97;101047.16;5002170;28;45608;-72
2021/10/20 01:07:48;;;;;;;;;8.00;8.00;;;;;17.46;61.26;101042.13;5007548;28;47461;-73
2021/10/20 01:10:14;;;;;;;;;8.33;8.33;;;;;17.42;61.35;101032.78;5010651;28;45336;-73
2021/10/20 01:12:42;;;;;;;;;7.00;7.00;;;;;17.41;61.38;101037.28;5010223;28;45360;-73
2021/10/20 01:15:13;;;;;;;;;9.00;7.00;;;;;17.41;61.59;101036.44;5000602;28;45335;-72
2021/10/20 01:17:39;;;;;;;;;9.00;8.00;;;;;17.40;61.80;101042.75;4997572;28;47250;-72
2021/10/20 01:20:05;;;;;;;;;8.33;8.00;;;;;17.42;62.14;101043.41;5003211;28;45281;-72
2021/10/20 01:22:32;;;;;;;;;10.00;7.33;;;;;17.45;61.00;101036.00;5003314;28;45789;-72
2021/10/20 01:24:59;;;;;;;;;9.00;8.00;;;;;17.46;62.04;101031.50;5003427;28;45465;-72
2021/10/20 01:27:24;;;;;;;;;9.00;7.67;;;;;17.48;61.83;101030.38;4999861;28;47086;-72
2021/10/20 01:29:49;;;;;;;;;7.33;7.33;;;;;17.50;61.71;101019.59;4998899;28;45326;-72
2021/10/20 01:32:15;;;;;;;;;10.00;10.00;;;;;17.49;61.62;101025.91;5010206;28;45646;-73
2021/10/20 01:34:40;;;;;;;;;8.00;8.00;;;;;17.48;61.95;101013.59;5007026;28;45376;-72
2021/10/20 01:37:06;;;;;;;;;8.33;8.00;;;;;17.52;61.81;101009.66;5002846;28;47094;-73
2021/10/20 01:39:34;;;;;;;;;6.33;4.00;;;;;17.54;61.87;101007.69;4999781;28;45357;-72
2021/10/20 01:42:00;;;;;;;;;10.00;8.33;;;;;17.57;61.92;101007.38;5011976;28;45486;-72
2021/10/20 01:44:25;;;;;;;;;10.33;7.00;;;;;17.58;61.56;101008.19;5000481;28;45406;-72
2021/10/20 01:46:51;;;;;;;;;9.00;9.00;;;;;17.58;61.91;101006.41;5010858;28;45376;-72
2021/10/20 01:49:16;;;;;;;;;8.00;8.00;;;;;17.57;61.76;101002.06;5009863;28;45305;-72
2021/10/20 01:51:42;;;;;;;;;10.67;7.67;;;;;17.56;61.76;101000.38;5001010;28;45611;-73
2021/10/20 01:54:08;;;;;;;;;8.67;8.67;;;;;17.56;62.00;100988.94;4998265;28;45277;-71
2021/10/20 01:56:34;;;;;;;;;9.33;7.33;;;;;17.57;61.91;100986.13;5000375;28;47232;-73
2021/10/20 01:59:00;;;;;;;;;9.33;9.33;;;;;17.57;62.02;100986.13;5012855;28;45351;-72
2021/10/20 02:01:26;;;;;;;;;8.00;7.67;;;;;17.51;62.11;100976.09;5012065;28;45486;-72
2021/10/20 02:03:51;;;;;;;;;10.00;10.00;;;;;17.53;62.05;100979.47;5012964;28;45333;-72
2021/10/20 02:06:19;;;;;;;;;5.00;4.33;;;;;17.56;62.19;100973.81;4999129;28;45996;-72
2021/10/20 02:08:46;;;;;;;;;10.00;8.00;;;;;17.55;62.06;100966.03;4998689;28;45329;-72
2021/10/20 02:11:11;;;;;;;;;10.67;10.00;;;;;17.55;62.10;100956.22;5004738;28;45536;-73
2021/10/20 02:13:38;;;;;;;;;10.00;9.00;;;;;17.56;62.40;100949.94;5013979;28;45360;-73
2021/10/20 02:16:04;;;;;;;;;14.00;11.00;;;;;17.53;62.30;100947.59;5011814;28;45461;-72
2021/10/20 02:18:30;;;;;;;;;6.33;6.33;;;;;17.51;62.67;100944.25;5000182;28;45563;-73
2021/10/20 02:20:56;;;;;;;;;11.33;9.67;;;;;17.50;62.48;100937.25;5012689;28;45377;-73
2021/10/20 02:23:21;;;;;;;;;9.00;9.00;;;;;17.52;62.23;100940.59;5001202;28;45433;-73
2021/10/20 02:25:47;;;;;;;;;10.00;9.67;;;;;17.53;62.55;100941.44;5002596;28;46289;-72
2021/10/20 02:28:13;;;;;;;;;12.00;9.33;;;;;17.51;62.39;100933.63;5002406;28;45855;-72
2021/10/20 02:30:41;;;;;;;;;11.33;10.00;;;;;17.55;62.65;100923.53;5001253;28;45502;-72
2021/10/20 02:33:07;;;;;;;;;10.33;7.00;;;;;17.58;62.79;100917.91;5000974;28;45295;-72
2021/10/20 02:35:32;;;;;;;;;12.00;9.67;;;;;17.57;62.57;100911.75;5002943;28;45549;-73
2021/10/20 02:37:59;;;;;;;;;11.00;10.00;;;;;17.60;62.54;100915.94;5005560;28;45281;-72
2021/10/20 02:40:25;;;;;;;;;12.00;11.67;;;;;17.59;62.31;100909.78;5003298;28;45587;-72
2021/10/20 02:42:50;;;;;;;;;11.67;10.67;;;;;17.60;62.37;100900.81;5005546;28;45379;-73
2021/10/20 02:45:16;;;;;;;;;10.00;10.00;;;;;17.63;62.34;100889.91;4999593;28;46957;-73
2021/10/20 02:47:42;;;;;;;;;9.00;9.00;;;;;17.62;62.41;100893.53;5001168;28;45481;-72
2021/10/20 02:50:09;;;;;;;;;14.33;13.00;;;;;17.60;62.39;100890.19;5012580;28;45461;-72
2021/10/20 02:52:34;;;;;;;;;13.00;9.33;;;;;17.62;62.44;100893.53;5010047;28;45710;-72
2021/10/20 02:55:00;;;;;;;;;11.33;11.33;;;;;17.62;62.33;100880.25;5006860;28;46285;-73
2021/10/20 02:57:25;;;;;;;;;9.00;7.67;;;;;17.65;62.21;100890.56;5015722;28;45414;-72
2021/10/20 02:59:54;;;;;;;;;10.00;10.00;;;;;17.64;62.49;100880.94;5001228;28;45392;-73
2021/10/20 03:02:19;;;;;;;;;11.33;9.67;;;;;17.69;62.23;100879.63;5004475;28;45598;-72
2021/10/20 03:04:46;;;;;;;;;14.67;11.00;;;;;17.64;62.21;100862.34;5015641;28;47313;-73
2021/10/20 03:07:12;;;;;;;;;14.00;11.00;;;;;17.63;62.39;100868.66;5013819;28;45404;-73
2021/10/20 03:09:37;;;;;;;;;11.67;9.00;;;;;17.61;62.27;100853.84;5004921;28;45458;-72
2021/10/20 03:12:03;;;;;;;;;9.00;9.00;;;;;17.59;62.43;100862.00;5001549;28;45408;-73
2021/10/20 03:14:28;;;;;;;;;12.67;10.33;;;;;17.56;62.55;100859.63;5002666;28;47026;-73
2021/10/20 03:16:53;;;;;;;;;9.67;9.00;;;;;17.55;62.59;100855.28;5005612;28;45397;-73
2021/10/20 03:19:19;;;;;;;;;13.67;10.67;;;;;17.50;62.64;100862.91;5009994;28;49116;-73
2021/10/20 03:21:44;;;;;;;;;11.33;9.00;;;;;17.45;62.90;100876.66;5014856;28;45436;-74
2021/10/20 03:24:10;;;;;;;;;10.33;6.33;;;;;17.44;62.65;100882.13;5000053;28;45990;-73
2021/10/20 03:26:35;;;;;;;;;14.67;11.33;;;;;17.42;62.53;100879.63;5002422;28;45364;-73
2021/10/20 03:29:01;;;;;;;;;9.33;8.67;;;;;17.35;63.03;100872.44;5005616;28;45486;-72
2021/10/20 03:31:26;;;;;;;;;8.00;7.67;;;;;17.36;63.01;100898.84;5005212;28;45578;-72
2021/10/20 03:33:52;;;;;;;;;13.00;11.67;;;;;17.40;63.02;100878.94;5006128;28;47054;-72
2021/10/20 03:36:17;;;;;;;;;11.00;9.00;;;;;17.48;62.95;100872.84;5016731;28;45387;-72
2021/10/20 03:38:42;;;;;;;;;10.00;8.33;;;;;17.57;62.60;100873.75;5001663;28;45294;-72
2021/10/20 03:41:08;;;;;;;;;9.00;8.67;;;;;17.55;62.51;100865.91;5000254;28;45398;-71
2021/10/20 03:43:33;;;;;;;;;6.67;6.67;;;;;17.51;62.50;100856.59;5006432;28;46896;-73
2021/10/20 03:46:00;;;;;;;;;10.33;8.00;;;;;17.48;62.50;100857.75;5014219;28;45347;-73
2021/10/20 03:48:25;;;;;;;;;9.67;9.67;;;;;17.45;62.68;100860.72;5002191;28;45427;-72
2021/10/20 03:50:50;;;;;;;;;14.00;13.67;;;;;17.44;62.44;100863.53;5000853;28;45510;-73
2021/10/20 03:53:16;;;;;;;;;11.67;10.67;;;;;17.42;62.80;100866.34;5004475;28;45443;-72
2021/10/20 03:55:42;;;;;;;;;13.33;10.67;;;;;17.46;62.87;100866.84;5005393;28;45679;-71
2021/10/20 03:58:07;;;;;;;;;10.33;8.33;;;;;17.50;62.94;100860.25;5006056;28;45529;-72
2021/10/20 04:00:33;;;;;;;;;9.67;9.33;;;;;17.52;62.49;100860.13;5002935;28;45492;-72
2021/10/20 04:02:58;;;;;;;;;10.00;8.00;;;;;17.50;62.41;100862.91;5013753;28;47278;-73
2021/10/20 04:05:23;;;;;;;;;14.33;13.33;;;;;17.47;62.18;100860.56;5011342;28;45546;-72
2021/10/20 04:08:07;;;;;;;;;10.00;9.00;;;;;17.43;62.77;100862.69;5007786;28;45713;-74
2021/10/20 04:10:33;;;;;;;;;13.00;10.00;;;;;17.40;62.41;100862.19;5005003;28;45417;-72
2021/10/20 04:12:59;;;;;;;;;9.33;7.67;;;;;17.37;62.75;100858.03;5004452;28;45592;-72
2021/10/20 04:15:25;;;;;;;;;9.67;9.67;;;;;17.40;62.86;100848.91;5001514;28;45394;-72
2021/10/20 04:17:51;;;;;;;;;11.33;8.67;;;;;17.40;62.93;100843.59;5000278;28;45461;-71
2021/10/20 04:20:18;;;;;;;;;11.67;11.00;;;;;17.36;62.73;100834.25;5000992;28;45550;-72
2021/10/20 04:22:45;;;;;;;;;12.33;12.33;;;;;17.32;62.92;100825.81;5007869;28;45600;-72
2021/10/20 04:25:11;;;;;;;;;14.33;12.00;;;;;17.28;62.98;100819.97;5012486;28;45443;-72
2021/10/20 04:27:38;;;;;;;;;11.33;10.00;;;;;17.25;63.03;100809.63;5003398;28;45344;-73
2021/10/20 04:30:04;;;;;;;;;12.00;11.67;;;;;17.23;63.17;100805.47;4999775;28;45463;-71
2021/10/20 04:32:30;;;;;;;;;10.33;10.33;;;;;17.21;63.45;100815.44;5002489;28;47957;-73
2021/10/20 04:34:55;;;;;;;;;9.00;9.00;;;;;17.26;63.52;100805.19;5007086;28;45373;-73
2021/10/20 04:37:25;;;;;;;;;13.67;11.00;;;;;17.28;63.35;100806.69;5004443;28;45231;-71
2021/10/20 04:39:58;;;;;;;;;10.33;10.00;;;;;17.31;63.22;100808.19;5011298;28;45333;-72
2021/10/20 04:42:25;;;;;;;;;12.67;12.67;;;;;17.40;63.00;100803.78;5014768;28;46436;-72
2021/10/20 04:44:51;;;;;;;;;11.67;11.00;;;;;17.39;62.73;100794.16;4999221;28;45290;-72
2021/10/20 04:47:17;;;;;;;;;10.00;10.00;;;;;17.35;62.86;100779.53;5008177;28;45328;-73
2021/10/20 04:49:43;;;;;;;;;13.67;10.33;;;;;17.34;63.07;100794.59;5008047;28;45408;-72
2021/10/20 04:52:09;;;;;;;;;11.33;9.00;;;;;17.37;63.08;100827.97;5007103;28;45494;-74
2021/10/20 04:54:34;;;;;;;;;10.67;10.00;;;;;17.41;63.03;100818.69;5011505;28;45526;-72
2021/10/20 04:56:59;;;;;;;;;8.33;7.33;;;;;17.46;62.74;100819.06;4999885;28;46049;-73
2021/10/20 04:59:27;;;;;;;;;14.67;12.33;;;;;17.51;62.68;100827.38;5001752;28;45230;-71
2021/10/20 05:01:53;;;;;;;;;9.33;9.33;;;;;17.46;62.57;100829.69;5003958;28;45512;-71
2021/10/20 05:04:18;;;;;;;;;9.67;9.33;;;;;17.42;62.63;100834.50;5006002;28;45298;-72
2021/10/20 05:06:44;;;;;;;;;11.00;9.00;;;;;17.42;62.63;100841.63;5017124;28;45558;-71
2021/10/20 05:09:09;;;;;;;;;11.67;11.67;;;;;17.42;62.71;100838.97;5001858;28;45571;-72
2021/10/20 05:11:34;;;;;;;;;9.67;9.00;;;;;17.45;62.80;100828.03;5002671;28;48713;-73
2021/10/20 05:14:00;;;;;;;;;8.00;8.00;;;;;17.47;62.79;100840.16;5003658;28;45444;-72
2021/10/20 05:16:25;;;;;;;;;11.67;11.67;;;;;17.45;62.51;100822.72;5002883;28;45325;-73
2021/10/20 05:18:50;;;;;;;;;11.00;10.00;;;;;17.43;62.69;100827.34;5003705;28;45475;-72
2021/10/20 05:21:16;;;;;;;;;11.00;10.67;;;;;17.50;62.78;100825.72;4999532;28;45744;-72
2021/10/20 05:23:42;;;;;;;;;10.33;9.33;;;;;17.56;62.57;100830.41;4998867;28;45462;-73
2021/10/20 05:26:08;;;;;;;;;9.67;9.67;;;;;17.55;62.52;100820.78;5008956;28;45428;-72
2021/10/20 05:28:33;;;;;;;;;12.33;11.00;;;;;17.56;62.22;100819.78;5003578;28;45509;-71
2021/10/20 05:30:59;;;;;;;;;13.33;11.67;;;;;17.53;62.23;100814.81;5003300;28;47209;-72
2021/10/20 05:33:24;;;;;;;;;12.00;11.00;;;;;17.48;62.41;100817.09;4999057;28;45617;-73
2021/10/20 05:35:49;;;;;;;;;14.00;13.00;;;;;17.42;62.57;100801.78;5015197;28;45425;-72
2021/10/20 05:38:15;;;;;;;;;10.67;10.33;;;;;17.38;62.68;100800.44;5003122;28;45602;-72
2021/10/20 05:40:40;;;;;;;;;14.00;11.00;;;;;17.23;63.03;100779.78;5003027;28;46141;-73
2021/10/20 05:43:05;;;;;;;;;14.00;12.00;;;;;17.26;62.94;100792.72;5003102;28;45435;-73
2021/10/20 05:45:31;;;;;;;;;12.67;11.00;;;;;17.26;63.10;100775.97;5000653;28;45761;-73
2021/10/20 05:47:56;;;;;;;;;12.67;10.33;;;;;17.24;63.28;100778.78;5001674;28;45296;-73
2021/10/20 05:50:22;;;;;;;;;12.00;12.00;;;;;17.17;63.55;100761.81;5010576;28;46753;-72
2021/10/20 05:52:47;;;;;;;;;8.67;8.67;;;;;17.11;63.67;100765.09;5006498;28;45415;-73
2021/10/20 05:55:13;;;;;;;;;13.00;13.00;;;;;17.09;63.69;100764.44;4999250;28;45754;-72
2021/10/20 05:57:39;;;;;;;;;11.00;11.00;;;;;17.09;63.77;100759.13;5002120;28;45348;-72
2021/10/20 06:00:12;;;;;;;;;8.67;8.00;;;;;17.05;63.94;100749.81;4998892;28;46300;-73
2021/10/20 06:02:39;;;;;;;;;14.67;12.33;;;;;17.03;63.99;100749.13;5008507;28;45409;-71
2021/10/20 06:05:05;;;;;;;;;11.00;10.33;;;;;17.02;64.27;100752.75;5003988;28;45305;-73
2021/10/20 06:07:30;;;;;;;;;12.00;10.00;;;;;17.00;64.35;100752.91;5008168;28;45330;-72
2021/10/20 06:09:56;;;;;;;;;15.33;12.00;;;;;17.01;64.10;100751.94;5012403;28;45726;-72
2021/10/20 06:12:22;;;;;;;;;12.33;12.00;;;;;17.09;64.12;100753.81;5017396;28;45344;-72
2021/10/20 06:14:48;;;;;;;;;13.33;11.33;;;;;17.11;63.93;100754.47;5003251;28;45386;-72
2021/10/20 06:17:14;;;;;;;;;11.00;10.00;;;;;17.10;63.84;100750.16;5013791;28;45324;-71
2021/10/20 06:19:39;;;;;;;;;12.00;9.00;;;;;17.08;64.21;100747.66;5012005;28;46570;-73
2021/10/20 06:22:05;;;;;;;;;12.67;9.33;;;;;17.10;63.96;100739.53;5008035;28;45321;-72
2021/10/20 06:24:30;;;;;;;;;13.00;12.00;;;;;17.06;64.20;100727.56;5004933;28;45451;-72
2021/10/20 06:26:55;;;;;;;;;10.00;9.67;;;;;17.06;64.23;100712.50;5011858;28;45286;-72
2021/10/20 06:29:23;;;;;;;;;13.00;10.33;;;;;17.08;64.27;100701.72;5005075;28;46110;-71
2021/10/20 06:31:48;;;;;;;;;14.00;14.00;;;;;17.06;64.36;100693.91;5006080;28;45322;-72
2021/10/20 06:34:14;;;;;;;;;15.00;14.00;;;;;17.04;64.46;100693.22;5006215;28;45491;-72
2021/10/20 06:36:41;;;;;;;;;14.33;13.00;;;;;17.03;64.35;100694.22;5005245;28;45356;-72
2021/10/20 06:39:07;;;;;;;;;10.67;10.67;;;;;17.06;64.35;100699.22;5001029;28;46271;-72
2021/10/20 06:41:32;;;;;;;;;16.33;13.00;;;;;17.08;64.52;100709.69;5003163;28;45454;-72
2021/10/20 06:43:58;;;;;;;;;8.00;6.67;;;;;17.09;64.10;100714.00;5010852;28;45389;-71
2021/10/20 06:46:23;;;;;;;;;13.33;11.33;;;;;17.14;64.26;100720.50;5011704;28;45322;-72
2021/10/20 06:48:49;;;;;;;;;14.00;11.33;;;;;17.22;64.18;100721.53;5007976;28;47042;-71
2021/10/20 06:51:14;;;;;;;;;11.33;7.67;;;;;17.24;63.93;100701.81;5001875;28;45335;-72
2021/10/20 06:53:40;;;;;;;;;10.00;10.00;;;;;17.30;63.83;100714.44;5017869;28;45327;-71
2021/10/20 06:56:09;;;;;;;;;12.33;10.00;;;;;17.32;63.97;100707.16;5006830;28;45530;-72
2021/10/20 06:58:35;;;;;;;;;11.33;10.00;;;;;17.38;63.82;100705.66;5007001;28;46597;-75
2021/10/20 07:01:01;;;;;;;;;10.67;8.67;;;;;17.40;63.73;100714.31;5020669;28;45304;-72
2021/10/20 07:03:27;;;;;;;;;13.33;11.67;;;;;17.39;64.05;100694.06;5010395;28;45508;-74
2021/10/20 07:05:52;;;;;;;;;10.67;10.33;;;;;17.44;64.04;100690.94;5002626;28;45461;-71
2021/10/20 07:08:17;;;;;;;;;11.33;9.33;;;;;17.47;63.89;100698.59;5011190;28;47273;-71
2021/10/20 07:10:43;;;;;;;;;12.00;11.67;;;;;17.53;63.77;100691.78;5013055;28;45526;-73
2021/10/20 07:13:09;;;;;;;;;9.33;9.00;;;;;17.55;63.73;100680.00;5014487;28;45365;-72
2021/10/20 07:15:34;;;;;;;;;11.33;9.33;;;;;17.55;63.76;100682.66;5011850;28;45297;-72
2021/10/20 07:18:00;;;;;;;;;15.67;13.33;;;;;17.49;64.30;100686.81;5006806;28;46340;-73
2021/10/20 07:20:25;;;;;;;;;11.33;10.00;;;;;17.47;64.22;100688.78;5021206;28;45297;-73
2021/10/20 07:22:51;;;;;;;;;10.33;10.33;;;;;17.51;64.83;100680.50;5025619;28;45116;-72
2021/10/20 07:25:18;;;;;;;;;13.33;11.00;;;;;17.48;64.47;100679.81;5024607;28;45210;-74
2021/10/20 07:27:45;;;;;;;;;10.33;10.33;;;;;17.40;65.11;100677.16;5014397;28;46603;-73
2021/10/20 07:30:12;;;;;;;;;9.00;7.67;;;;;17.39;64.61;100669.34;5028593;28;44973;-72
2021/10/20 07:32:41;;;;;;;;;10.67;10.33;;;;;17.41;65.01;100662.03;5016459;28;45328;-73
2021/10/20 07:35:09;;;;;;;;;15.00;13.67;;;;;17.42;64.74;100666.38;5012172;28;45582;-73
2021/10/20 07:37:35;;;;;;;;;13.67;11.00;;;;;17.45;64.35;100656.25;5009935;28;48144;-72
2021/10/20 07:40:01;;;;;;;;;12.67;11.00;;;;;17.52;64.83;100658.28;5011670;28;45519;-73
2021/10/20 07:42:26;;;;;;;;;6.33;5.00;;;;;17.51;64.83;100660.09;5016559;28;45380;-73
2021/10/20 07:44:52;;;;;;;;;14.67;10.33;;;;;17.53;64.47;100666.09;5000754;28;45492;-72
2021/10/20 07:47:20;;;;;;;;;10.00;10.00;;;;;17.59;64.50;100676.06;5014162;28;47124;-73
2021/10/20 07:49:45;;;;;;;;;12.00;10.00;;;;;17.64;64.31;100679.06;5005197;28;45389;-73
2021/10/20 07:52:11;;;;;;;;;12.33;10.33;;;;;17.63;65.05;100688.03;5004629;28;45545;-73
2021/10/20 07:54:38;;;;;;;;;12.00;10.67;;;;;17.60;65.00;100680.38;5008632;28;45590;-73
2021/10/20 07:57:04;;;;;;;;;15.33;12.33;;;;;17.60;64.91;100671.56;5001310;28;46275;-72
2021/10/20 07:59:29;;;;;;;;;15.33;11.67;;;;;17.62;64.54;100689.00;5002563;28;45500;-74
2021/10/20 08:01:55;;;;;;;;;10.33;8.00;;;;;17.70;65.05;100692.69;5004103;28;45382;-72
2021/10/20 08:04:20;;;;;;;;;15.00;13.00;;;;;17.71;64.80;100702.31;5007703;28;45453;-74
2021/10/20 08:06:45;;;;;;;;;13.33;11.67;;;;;17.71;65.42;100710.28;5009574;28;47062;-74
2021/10/20 08:09:11;;;;;;;;;14.00;11.33;;;;;17.73;64.86;100708.31;5000194;28;45724;-73
2021/10/20 08:11:36;;;;;;;;;13.33;10.67;;;;;17.69;65.64;100701.66;5001894;28;45440;-70
2021/10/20 08:14:03;;;;;;;;;17.67;15.00;;;;;17.61;65.30;100691.84;5005834;28;45518;-70
2021/10/20 08:16:29;;;;;;;;;12.33;11.00;;;;;17.64;65.13;100694.16;5004824;28;46224;-70
2021/10/20 08:18:54;;;;;;;;;17.00;10.33;;;;;17.60;65.28;100693.63;5007006;28;45420;-69
2021/10/20 08:21:20;;;;;;;;;14.00;12.67;;;;;17.63;65.91;100688.03;5000033;28;45338;-70
2021/10/20 08:23:45;;;;;;;;;12.00;12.00;;;;;17.65;65.59;100688.69;4999708;28;45304;-70
2021/10/20 08:26:11;;;;;;;;;12.33;11.00;;;;;17.61;66.69;100697.97;5001230;28;45506;-74
2021/10/20 08:28:36;;;;;;;;;18.00;15.00;;;;;17.49;67.51;100702.75;4998537;28;45401;-73
2021/10/20 08:31:02;;;;;;;;;15.00;12.67;;;;;17.37;67.29;100709.34;5006838;28;45650;-72
2021/10/20 08:33:28;;;;;;;;;16.33;12.33;;;;;17.29;67.92;100712.78;5001276;28;45397;-72
2021/10/20 08:35:53;;;;;;;;;16.33;14.33;;;;;17.20;67.91;100724.31;5003783;28;46562;-72
2021/10/20 08:38:19;;;;;;;;;17.33;15.00;;;;;17.15;69.37;100697.44;5002908;28;45411;-74
2021/10/20 08:40:47;;;;;;;;;17.67;14.67;;;;;17.11;68.64;100698.72;5001841;28;45307;-72
2021/10/20 08:43:18;;;;;;;;;16.00;14.00;;;;;17.06;69.19;100715.16;5003913;28;45573;-72
2021/10/20 08:45:45;;;;;;;;;19.00;18.67;;;;;17.04;69.75;100703.03;5011322;28;45446;-72
2021/10/20 08:48:13;;;;;;;;;19.00;16.00;;;;;17.01;70.40;100690.06;4998982;28;45414;-73
2021/10/20 08:50:39;;;;;;;;;33.00;28.67;;;;;16.99;69.95;100690.22;4999819;28;45503;-69
2021/10/20 08:53:05;;;;;;;;;15.67;13.67;;;;;17.01;70.81;100701.50;5009470;28;45262;-72
2021/10/20 08:55:30;;;;;;;;;17.33;15.00;;;;;17.03;70.08;100707.47;5012623;28;46308;-70
2021/10/20 08:57:56;;;;;;;;;16.33;15.00;;;;;17.04;70.43;100713.63;5002192;28;45200;-73
2021/10/20 09:00:23;;;;;;;;;16.33;15.67;;;;;17.03;70.53;100712.78;4998174;28;45630;-72
2021/10/20 09:02:49;;;;;;;;;19.33;15.67;;;;;17.03;71.13;100719.94;5011363;28;45338;-73
2021/10/20 09:05:19;;;;;;;;;25.33;20.00;;;;;17.01;71.06;100716.59;5005313;28;46279;-76
2021/10/20 09:07:47;;;;;;;;;33.00;27.00;;;;;16.97;71.59;100716.91;5006438;28;45482;-70
2021/10/20 09:10:14;;;;;;;;;21.33;18.00;;;;;16.96;71.71;100717.88;5005499;28;45465;-68
2021/10/20 09:12:40;;;;;;;;;20.00;16.00;;;;;16.96;71.72;100717.88;5001971;28;45310;-69
2021/10/20 09:15:20;;;;;;;;;14.33;13.67;;;;;16.96;72.28;100706.47;4997897;28;46788;-68
2021/10/20 09:17:47;;;;;;;;;19.33;18.00;;;;;16.96;72.22;100707.28;5010893;28;45435;-69
2021/10/20 09:20:37;;;;;;;;;19.00;16.00;;;;;16.96;71.71;100717.06;5014909;28;45261;-68
2021/10/20 09:23:14;;;;;;;;;17.00;14.00;;;;;16.95;72.47;100713.56;5003907;28;45433;-69
2021/10/20 09:25:41;;;;;;;;;17.67;16.33;;;;;16.97;72.64;100714.25;5002718;28;46337;-68
2021/10/20 09:28:21;;;;;;;;;20.67;20.00;;;;;16.96;73.14;100701.97;5002760;28;45385;-69
2021/10/20 09:30:47;;;;;;;;;17.67;14.33;;;;;16.98;73.43;100705.31;4999470;28;45418;-69
2021/10/20 09:33:12;;;;;;;;;16.67;14.00;;;;;16.98;72.67;100700.00;5012444;28;45584;-69
2021/10/20 09:35:38;;;;;;;;;22.67;21.00;;;;;17.01;73.58;100692.69;5000255;28;46991;-68
2021/10/20 09:38:05;;;;;;;;;20.67;19.33;;;;;17.02;73.66;100699.69;5008831;28;45534;-69
2021/10/20 09:41:01;;;;;;;;;32.00;30.00;;;;;17.04;73.23;100695.06;5009104;28;45356;-69
2021/10/20 09:43:27;;;;;;;;;25.00;22.67;;;;;17.09;73.25;100690.13;5005636;28;45594;-70
2021/10/20 09:45:53;;;;;;;;;19.67;17.00;;;;;17.11;73.20;100688.13;5009057;28;46158;-70
2021/10/20 09:48:24;;;;;;;;;14.67;13.00;;;;;17.15;73.42;100692.13;5003881;28;45582;-69
2021/10/20 09:50:55;;;;;;;;;20.67;18.00;;;;;17.18;73.48;100683.84;5001018;28;45568;-70
2021/10/20 09:53:21;;;;;;;;;14.00;12.67;;;;;17.23;73.46;100684.22;5005302;28;45478;-69
2021/10/20 09:55:47;;;;;;;;;18.67;17.00;;;;;17.30;73.34;100687.88;5011499;28;46059;-69
2021/10/20 09:58:14;;;;;;;;;18.00;16.00;;;;;17.37;73.28;100697.88;5016492;28;45463;-70
2021/10/20 10:00:43;;;;;;;;;17.67;16.67;;;;;17.38;73.33;100696.88;5013631;28;45418;-69
2021/10/20 10:03:10;;;;;;;;;19.33;15.00;;;;;17.38;73.23;100688.91;5016583;28;45229;-70
2021/10/20 10:05:36;;;;;;;;;18.33;17.00;;;;;17.42;72.95;100692.91;5002952;28;45391;-71
2021/10/20 10:08:02;;;;;;;;;17.00;15.67;;;;;17.46;73.58;100673.00;5004200;28;45548;-71
2021/10/20 10:10:28;;;;;;;;;17.00;15.00;;;;;17.48;73.07;100673.69;5005746;28;45496;-70
2021/10/20 10:12:57;;;;;;;;;21.00;19.33;;;;;17.51;73.25;100670.72;5002174;28;45555;-70
2021/10/20 10:15:24;;;;;;;;;22.67;20.33;;;;;17.55;73.08;100666.72;5017105;28;47432;-72
2021/10/20 10:17:53;;;;;;;;;17.33;15.67;;;;;17.55;73.05;100663.25;5000119;28;45365;-70
2021/10/20 10:20:20;;;;;;;;;19.33;16.00;;;;;17.57;73.35;100672.72;5004368;28;45543;-70
2021/10/20 10:22:53;;;;;;;;;18.33;16.00;;;;;17.57;72.93;100678.03;5009560;28;45497;-68
2021/10/20 10:25:41;;;;;;;;;17.00;12.33;;;;;17.58;73.18;100662.91;5012527;28;45607;-70
2021/10/20 10:28:23;;;;;;;;;16.67;15.00;;;;;17.60;72.84;100661.78;5005601;28;45471;-70
2021/10/20 10:30:57;;;;;;;;;19.67;17.00;;;;;17.62;73.03;100670.41;5005306;28;45426;-71
2021/10/20 10:33:25;;;;;;;;;18.33;15.33;;;;;17.62;72.99;100664.28;5002091;28;45431;-71
2021/10/20 10:36:11;;;;;;;;;16.00;15.33;;;;;17.65;73.08;100659.47;5000844;28;45650;-70
2021/10/20 10:38:44;;;;;;;;;17.00;15.33;;;;;17.68;73.14;100657.50;5012021;28;45316;-70
2021/10/20 10:41:27;;;;;;;;;21.33;15.00;;;;;17.69;72.99;100653.84;5005355;28;45360;-70
2021/10/20 10:44:02;;;;;;;;;15.67;13.33;;;;;17.70;72.87;100656.34;5005255;28;45546;-71
2021/10/20 10:47:07;;;;;;;;;18.67;18.67;;;;;17.70;73.16;100645.72;5004630;28;46199;-70
2021/10/20 10:49:43;;;;;;;;;15.33;14.33;;;;;17.75;72.88;100655.84;5005232;28;45455;-71
2021/10/20 10:52:19;;;;;;;;;12.67;11.33;;;;;17.75;73.05;100654.03;5004207;28;45508;-71
2021/10/20 10:55:06;;;;;;;;;10.67;7.67;;;;;17.80;72.88;100645.56;5004802;28;45427;-71
2021/10/20 10:57:50;;;;;;;;;12.33;10.67;;;;;17.84;72.42;100636.28;5002711;28;47115;-72
2021/10/20 11:00:19;;;;;;;;;12.67;12.00;;;;;17.92;71.78;100617.69;5000541;28;45539;-69
2021/10/20 11:02:51;;;;;;;;;11.33;9.33;;;;;17.98;71.99;100625.03;5013212;28;45404;-71
2021/10/20 11:05:25;;;;;;;;;18.00;15.00;;;;;18.08;71.46;100616.88;5012006;28;45446;-71
2021/10/20 11:08:05;;;;;;;;;17.33;15.00;;;;;18.20;71.62;100612.09;5007595;28;46506;-70
2021/10/20 11:10:33;;;;;;;;;9.67;8.33;;;;;18.29;70.85;100607.56;5005087;28;45507;-70
2021/10/20 11:13:00;;;;;;;;;11.00;10.00;;;;;18.41;70.58;100631.97;5004773;28;45443;-70
2021/10/20 11:15:28;;;;;;;;;15.33;14.67;;;;;18.47;69.86;100629.50;5000506;28;45786;-70